WARNING - Please set your current conddition source. Defaulted to metar

Welkom op de weersite van Veghel e.o.

Voor vele een welkome verandering , het regent weer.

Temperatuur weer onder 25 graden dus;

Einde aan de hittegolf 2018.

Deze begon op 12 juli t/m 8 augustus totaal van 28 dagen.

Het warmst was het op 26 en 27 juli met 36.6 graden.


Webcam Veghel  Webcam Veghel


Onweer radar Meer informatie blitzortung!


waarschuwing voor winterse neerslag Meer informatie rain snow radar


U vindt ons ook hier:

Het Weer Aktueel

European Weather Network

Weather Underground

Benelux Weer Netwerk

AWEKAS


Sneeuw/IJzel/Bevriezing van: 15-12-2018 22:00 tot: 16-12-2018 10:00 waarschuwing voor: Sneeuw/IJzel/Bevriezing niveau: Geel info button
Kans op gladheid door sneeuwval.Kans op gladheid.Alle verkeersdeelnemers kunnen hinder ondervinden.Pas uw rijgedrag aan.Volg weerberichten en waarschuwingen.

METAR rapporten vliegvelden

   
EHAM - Amsterdam
Gewijzigd: 15-12-2018 17:55
Licht bewolkt  
Licht bewolkt  
   Wind: ZO 29.6 km/h
Wind: ZO 29.6 km/h
Temperatuur: 0°C
Voelt als: -7°C
Dauwpunt: -5°C
Vochtigheid: 69%
Barometer: 1017 hPa
Bewolking: Few Clouds
Zicht: meer dan 10 km
Bewolking: Licht bewolkt 2800 ft
EHAM 151655Z 13016KT 9999 FEW028 M00/M05 Q1017 NOSIG
EHEH - Eindhoven
Gewijzigd: 15-12-2018 17:55
Bewolking  
Bewolking  
   Wind: OZO 16.7 km/h
Wind: OZO 16.7 km/h
Temperatuur: 0°C
Voelt als: -4°C
Dauwpunt: -5°C
Vochtigheid: 69%
Barometer: 1018 hPa
Bewolking: Overcast
Zicht: meer dan 10 km
Bewolking: Bewolking 27000 ft
EHEH 151655Z AUTO 12009KT 070V180 9999 OVC270 M00/M05 Q1018 BLU 15012KT 9999 FEW030 BKN250
EHGR - Gilze/Rijen
Gewijzigd: 15-12-2018 17:55
Bewolking  
Bewolking  
   Wind: OZO 18.5 km/h
Wind: OZO 18.5 km/h
Temperatuur: 0°C
Voelt als: -5°C
Dauwpunt: -5°C
Vochtigheid: 69%
Barometer: 1017 hPa
Bewolking: Overcast
Zicht: meer dan 10 km
Bewolking: Bewolking 31000 ft
EHGR 151655Z AUTO 12010KT 090V150 9999 OVC310 M00/M05 Q1017 BLU
EHBK - Maastricht
Gewijzigd: 15-12-2018 17:55
Gedeeltelijk bewolkt  
Gedeeltelijk bewolkt  
   Wind: ZO 13 km/h
Wind: ZO 13 km/h
Temperatuur: -1°C
Voelt als: -5°C
Dauwpunt: -6°C
Vochtigheid: 69%
Barometer: 1018 hPa
Bewolking: Partly Cloudy
Zicht: meer dan 10 km
Bewolking: Gedeeltelijk bewolkt ft
EHBK 151655Z AUTO 13007KT 9999 NSC M01/M06 Q1018 NOSIG
EHVK - Volkel
Gewijzigd: 15-12-2018 17:55
Bewolking  
Bewolking  
   Wind: ZO 16.7 km/h
Wind: ZO 16.7 km/h
Temperatuur: 0°C
Voelt als: -4°C
Dauwpunt: -5°C
Vochtigheid: 69%
Barometer: 1019 hPa
Bewolking: Overcast
Zicht: meer dan 10 km
Bewolking: Bewolking 33000 ft
EHVK 151655Z AUTO 13009KT 9999 OVC330 M00/M05 Q1019 BLU
EHFS - Vlissingen
Gewijzigd: 15-12-2018 17:55
Gedeeltelijk bewolkt  
Gedeeltelijk bewolkt  
   Wind: ZZO 42.6 km/h
Wind: ZZO 42.6 km/h
Temperatuur: 2°C
Voelt als: -5°C
Dauwpunt: -2°C
Vochtigheid: 75%
Barometer: 1015 hPa
Bewolking: Partly Cloudy
Zicht: meer dan 10 km
Bewolking: Gedeeltelijk bewolkt ft
EHFS 151655Z AUTO 15023KT 9999 NSC 02/M02 Q1015 W///H///

Script ontwikkeld door  Saratoga-weather.org Aangepast voor de template door  Weerstation Leuven

Apparatuur in gebruik:

Weerstation
Davis VP2

Weerprogramma
WeatherLink

Weercomputer
Sponsor

Webleverancier
My provider

Davis VP2

WeatherLink

Sponsor

My provider